Time;durP1;ratioP1;P1;durP2;ratioP2;P2;SDS_P1;SDS_P2;PMS_P1;PMS_P2;Temp;Humidity;BMP_temperature;BMP_pressure;BME280_temperature;BME280_humidity;BME280_pressure;Samples;Min_cycle;Max_cycle;Signal;HPM_P1;HPM_P2
2020/12/03 00:01:03;;;;;;;11.95;6.45;;;15.50;64.10;;;-143.79;100.00;62634.88;5017860;28;20515;-68
2020/12/03 00:03:42;;;;;;;8.60;6.90;;;15.50;64.10;;;-143.79;100.00;62634.88;5034955;28;20037;-69
2020/12/03 00:06:32;;;;;;;8.25;6.28;;;15.50;64.20;;;-143.79;100.00;62634.88;5017646;28;20033;-69
2020/12/03 00:09:16;;;;;;;7.15;6.03;;;15.50;64.20;;;-143.79;100.00;62634.88;5000914;28;20392;-68
2020/12/03 00:11:49;;;;;;;7.55;6.05;;;15.50;64.20;;;-143.79;100.00;62634.88;5017077;28;20057;-69
2020/12/03 00:14:15;;;;;;;8.70;6.20;;;15.50;64.20;;;-143.79;100.00;62634.88;5035133;28;20044;-69
2020/12/03 00:16:42;;;;;;;7.97;6.03;;;15.50;64.20;;;-143.79;100.00;62634.88;5034591;28;20479;-68
2020/12/03 00:19:10;;;;;;;7.47;6.10;;;15.50;64.20;;;-143.79;100.00;62634.88;5017348;28;20033;-69
2020/12/03 00:21:40;;;;;;;7.10;5.93;;;15.50;64.10;;;-143.79;100.00;62634.88;5034648;28;20064;-69
2020/12/03 00:24:08;;;;;;;8.38;5.85;;;15.50;64.20;;;-143.79;100.00;62634.88;5035206;28;20076;-69
2020/12/03 00:26:35;;;;;;;7.90;5.32;;;15.50;64.10;;;-143.79;100.00;62634.88;5017081;28;20503;-69
2020/12/03 00:29:01;;;;;;;7.88;6.32;;;15.50;64.10;;;-143.79;100.00;62634.88;5016716;28;20037;-68
2020/12/03 00:31:27;;;;;;;6.95;5.57;;;15.50;64.10;;;-143.79;100.00;62634.88;5016678;28;20120;-68
2020/12/03 00:33:54;;;;;;;7.40;5.70;;;15.40;64.10;;;-143.79;100.00;62634.88;5034630;28;20395;-68
2020/12/03 00:36:20;;;;;;;8.60;5.70;;;15.40;64.00;;;-143.79;100.00;62634.88;5035351;28;20049;-68
2020/12/03 00:38:48;;;;;;;7.30;5.97;;;15.40;64.00;;;-143.79;100.00;62634.88;5016874;28;20033;-69
2020/12/03 00:41:15;;;;;;;7.45;5.70;;;15.40;64.00;;;-143.79;100.00;62634.88;5034474;28;20103;-68
2020/12/03 00:43:41;;;;;;;7.43;5.80;;;15.40;64.00;;;-143.79;100.00;62634.88;5034487;28;20040;-68
2020/12/03 00:46:07;;;;;;;10.18;6.32;;;15.40;64.00;;;-143.79;100.00;62634.88;5034060;28;20037;-69
2020/12/03 00:48:32;;;;;;;8.82;5.57;;;15.40;64.00;;;-143.79;100.00;62634.88;5034403;28;20064;-69
2020/12/03 00:50:58;;;;;;;6.88;5.40;;;15.40;64.00;;;-143.79;100.00;62634.88;5034345;28;20043;-68
2020/12/03 00:53:24;;;;;;;8.23;5.15;;;15.30;63.90;;;-143.79;100.00;62634.88;5034378;28;20049;-69
2020/12/03 00:55:50;;;;;;;7.97;5.00;;;15.50;64.10;;;-143.79;100.00;62634.88;5034143;28;20045;-69
2020/12/03 00:58:16;;;;;;;6.28;5.07;;;15.40;64.00;;;-143.79;100.00;62634.88;5016565;28;20061;-68
2020/12/03 01:00:42;;;;;;;6.35;5.07;;;15.40;64.00;;;-143.79;100.00;62634.88;5034210;28;20412;-68
2020/12/03 01:03:08;;;;;;;7.60;4.93;;;15.40;64.00;;;-143.79;100.00;62634.88;5016206;28;20037;-68
2020/12/03 01:05:34;;;;;;;5.65;4.75;;;15.40;64.00;;;-143.79;100.00;62634.88;5033858;28;20041;-69
2020/12/03 01:08:00;;;;;;;6.47;4.30;;;15.40;64.00;;;-143.79;100.00;62634.88;5033982;28;20080;-69
2020/12/03 01:10:31;;;;;;;7.15;4.47;;;15.50;64.10;;;-143.79;100.00;62634.88;4999731;28;20033;-69
2020/12/03 01:13:02;;;;;;;6.10;4.35;;;15.50;64.00;;;-143.79;100.00;62634.88;5034050;28;20054;-68
2020/12/03 01:15:29;;;;;;;;;;;15.60;63.90;;;-143.79;100.00;62634.88;5034091;28;20034;-68
2020/12/03 01:17:56;;;;;;;5.60;4.60;;;15.60;63.90;;;-143.79;100.00;62634.88;5016245;28;19920;-69
2020/12/03 01:20:25;;;;;;;5.38;3.85;;;15.70;63.80;;;-143.79;100.00;62634.88;5033633;28;20075;-68
2020/12/03 01:22:51;;;;;;;6.70;4.22;;;15.80;63.80;;;-143.79;100.00;62634.88;5015804;28;20040;-68
2020/12/03 01:25:20;;;;;;;6.32;3.97;;;15.90;63.80;;;-143.79;100.00;62634.88;5015836;28;20112;-69
2020/12/03 01:27:46;;;;;;;6.25;4.13;;;15.80;63.70;;;-143.79;100.00;62634.88;5033605;28;20049;-68
2020/12/03 01:30:13;;;;;;;4.65;3.83;;;15.90;63.70;;;-143.79;100.00;62634.88;5033644;28;20033;-68
2020/12/03 01:32:39;;;;;;;7.57;4.53;;;15.90;63.60;;;-143.79;100.00;62634.88;5033339;28;20043;-67
2020/12/03 01:35:08;;;;;;;6.95;3.90;;;15.90;63.70;;;-143.79;100.00;62634.88;5015500;28;20033;-68
2020/12/03 01:37:35;;;;;;;6.65;4.13;;;15.90;63.60;;;-143.79;100.00;62634.88;5034144;28;20510;-68
2020/12/03 01:40:03;;;;;;;6.30;4.05;;;15.90;63.60;;;-143.79;100.00;62634.88;5033157;28;20037;-68
2020/12/03 01:42:29;;;;;;;7.97;4.10;;;15.90;63.50;;;-143.79;100.00;62634.88;5015812;28;20375;-68
2020/12/03 01:44:55;;;;;;;4.18;3.42;;;15.90;63.40;;;-143.79;100.00;62634.88;5014911;28;20063;-68
2020/12/03 01:47:35;;;;;;;6.15;3.90;;;15.80;63.40;;;-143.79;100.00;62634.88;5015530;28;20038;-68
2020/12/03 01:50:05;;;;;;;7.18;3.80;;;15.90;63.40;;;-143.79;100.00;62634.88;5033093;28;20391;-68
2020/12/03 01:52:31;;;;;;;7.38;4.18;;;15.80;64.00;;;-143.79;100.00;62634.88;5033012;28;20029;-68
2020/12/03 01:54:57;;;;;;;5.15;3.75;;;15.80;63.40;;;-143.79;100.00;62634.88;5015291;28;20049;-69
2020/12/03 01:57:46;;;;;;;6.28;4.22;;;15.80;63.40;;;-143.79;100.00;62634.88;5032927;28;20155;-68
2020/12/03 02:00:15;;;;;;;5.30;3.55;;;15.80;63.30;;;-143.79;100.00;62634.88;5033240;28;20033;-68
2020/12/03 02:02:46;;;;;;;6.45;4.00;;;15.80;63.20;;;-143.79;100.00;62634.88;5015209;28;20044;-68
2020/12/03 02:05:16;;;;;;;5.82;3.60;;;15.70;63.20;;;-143.79;100.00;62634.88;5014859;28;20153;-68
2020/12/03 02:07:42;;;;;;;5.37;3.20;;;15.70;63.10;;;-143.79;100.00;62634.88;5015129;28;20087;-68
2020/12/03 02:10:09;;;;;;;6.20;4.00;;;15.70;63.10;;;-143.79;100.00;62634.88;5032739;28;20048;-68
2020/12/03 02:12:35;;;;;;;5.57;3.53;;;15.70;63.10;;;-143.79;100.00;62634.88;5032928;28;20029;-69
2020/12/03 02:15:04;;;;;;;4.88;3.33;;;15.70;63.10;;;-143.79;100.00;62634.88;5015096;28;20055;-68
2020/12/03 02:17:29;;;;;;;5.68;3.10;;;15.60;63.10;;;-143.79;100.00;62634.88;5015090;28;20037;-68
2020/12/03 02:20:01;;;;;;;5.45;3.92;;;15.70;63.20;;;-143.79;100.00;62634.88;5032664;28;20022;-68
2020/12/03 02:22:27;;;;;;;6.10;3.25;;;15.60;63.20;;;-143.79;100.00;62634.88;5015054;28;20041;-68
2020/12/03 02:24:53;;;;;;;5.95;3.55;;;15.60;63.20;;;-143.79;100.00;62634.88;5032500;28;20041;-69
2020/12/03 02:27:23;;;;;;;4.30;3.03;;;15.60;63.10;;;-143.79;100.00;62634.88;5032515;28;20041;-68
2020/12/03 02:29:50;;;;;;;4.78;3.10;;;15.60;63.20;;;-143.79;100.00;62634.88;5014790;28;20033;-68
2020/12/03 02:32:16;;;;;;;5.95;3.58;;;15.60;63.20;;;-143.79;100.00;62634.88;5014839;28;20076;-68
2020/12/03 02:34:44;;;;;;;4.72;3.13;;;15.60;63.10;;;-143.79;100.00;62634.88;5032324;28;20034;-68
2020/12/03 02:37:10;;;;;;;4.55;3.38;;;15.60;63.20;;;-143.79;100.00;62634.88;5033544;28;20049;-68
2020/12/03 02:39:37;;;;;;;4.43;2.83;;;15.50;63.10;;;-143.79;100.00;62634.88;5032573;28;20153;-68
2020/12/03 02:42:07;;;;;;;4.68;3.30;;;15.50;63.10;;;-143.79;100.00;62634.88;5032400;28;20553;-68
2020/12/03 02:44:44;;;;;;;5.53;3.42;;;15.50;63.20;;;-143.79;100.00;62634.88;5032679;28;20039;-68
2020/12/03 02:47:14;;;;;;;5.00;3.08;;;15.50;63.20;;;-143.79;100.00;62634.88;5032415;28;20030;-69
2020/12/03 02:49:43;;;;;;;5.45;3.13;;;15.50;63.10;;;-143.79;100.00;62634.88;5032253;28;20037;-69
2020/12/03 02:52:11;;;;;;;4.78;2.97;;;15.50;63.10;;;-143.79;100.00;62634.88;5032563;28;20415;-68
2020/12/03 02:54:38;;;;;;;6.95;3.67;;;15.50;63.10;;;-143.79;100.00;62634.88;5032581;28;20124;-68
2020/12/03 02:57:04;;;;;;;3.47;2.83;;;15.50;63.80;;;-143.79;100.00;62634.88;5015612;28;20091;-68
2020/12/03 02:59:29;;;;;;;5.75;3.03;;;15.50;63.00;;;-143.79;100.00;62634.88;5036192;28;20038;-68
2020/12/03 03:01:55;;;;;;;5.75;3.60;;;15.50;63.00;;;-143.79;100.00;62634.88;5036364;28;20031;-68
2020/12/03 03:04:21;;;;;;;3.65;3.00;;;15.50;63.00;;;-143.79;100.00;62634.88;5036091;28;20029;-68
2020/12/03 03:06:46;;;;;;;5.32;2.90;;;15.50;63.00;;;-143.79;100.00;62634.88;5036002;28;20069;-68
2020/12/03 03:09:12;;;;;;;4.90;2.70;;;15.60;63.00;;;-143.79;100.00;62634.88;5036240;28;20064;-68
2020/12/03 03:11:38;;;;;;;5.93;3.10;;;15.60;63.20;;;-143.79;100.00;62634.88;5035970;28;20080;-68
2020/12/03 03:14:05;;;;;;;3.42;2.30;;;15.60;63.20;;;-143.79;100.00;62634.88;5035941;28;20029;-68
2020/12/03 03:16:31;;;;;;;4.50;2.70;;;15.70;63.00;;;-143.79;100.00;62634.88;5035732;28;20037;-68
2020/12/03 03:18:57;;;;;;;5.13;3.15;;;15.70;62.80;;;-143.79;100.00;62634.88;5018091;28;20025;-68
2020/12/03 03:21:23;;;;;;;4.60;2.85;;;15.80;62.80;;;-143.79;100.00;62634.88;5035840;28;20080;-68
2020/12/03 03:23:49;;;;;;;4.03;2.42;;;15.80;62.60;;;-143.79;100.00;62634.88;5035824;28;20443;-68
2020/12/03 03:26:15;;;;;;;3.25;2.60;;;15.90;62.60;;;-143.79;100.00;62634.88;5035736;28;20029;-68
2020/12/03 03:28:42;;;;;;;5.45;2.60;;;16.00;62.50;;;-143.79;100.00;62634.88;5018332;28;20033;-68
2020/12/03 03:31:16;;;;;;;6.43;2.88;;;16.00;62.30;;;-143.79;100.00;62634.88;5035615;28;20368;-68
2020/12/03 03:33:42;;;;;;;5.18;2.80;;;16.10;62.20;;;-143.79;100.00;62634.88;5035634;28;20537;-68
2020/12/03 03:36:08;;;;;;;3.53;2.13;;;16.10;62.30;;;-143.79;100.00;62634.88;5036409;28;20183;-68
2020/12/03 03:38:34;;;;;;;3.45;2.22;;;16.10;62.40;;;-143.79;100.00;62634.88;5035805;28;20035;-68
2020/12/03 03:41:00;;;;;;;5.18;2.70;;;16.10;62.40;;;-143.79;100.00;62634.88;5017727;28;20045;-68
2020/12/03 03:43:25;;;;;;;4.07;2.78;;;16.10;62.30;;;-143.79;100.00;62634.88;5017692;28;20034;-68
2020/12/03 03:45:51;;;;;;;5.15;2.75;;;16.10;62.30;;;-143.79;100.00;62634.88;5035326;28;20037;-68
2020/12/03 03:48:17;;;;;;;5.45;3.10;;;16.10;62.30;;;-143.79;100.00;62634.88;5017746;28;20033;-68
2020/12/03 03:50:43;;;;;;;4.82;2.70;;;16.10;62.40;;;-143.79;100.00;62634.88;5017767;28;20034;-68
2020/12/03 03:53:09;;;;;;;5.78;2.90;;;16.10;62.40;;;-143.79;100.00;62634.88;5035557;28;20041;-68
2020/12/03 03:55:35;;;;;;;3.75;2.58;;;16.00;62.30;;;-143.79;100.00;62634.88;5035026;28;20044;-68
2020/12/03 03:58:00;;;;;;;4.55;2.45;;;16.00;62.20;;;-143.79;100.00;62634.88;5033989;28;20488;-68
2020/12/03 04:00:26;;;;;;;3.85;2.88;;;16.00;62.40;;;-143.79;100.00;62634.88;5034980;28;20033;-68
2020/12/03 04:02:52;;;;;;;3.58;2.55;;;16.00;62.40;;;-143.79;100.00;62634.88;5035042;28;20045;-68
2020/12/03 04:05:17;;;;;;;5.28;2.67;;;15.90;62.20;;;-143.79;100.00;62634.88;5035343;28;20033;-68
2020/12/03 04:07:46;;;;;;;4.28;3.05;;;15.80;62.40;;;-143.79;100.00;62634.88;5034548;28;20039;-67
2020/12/03 04:10:12;;;;;;;3.60;2.45;;;15.90;62.40;;;-143.79;100.00;62634.88;5035222;28;20057;-68
2020/12/03 04:12:39;;;;;;;4.65;2.70;;;15.90;63.00;;;-143.79;100.00;62634.88;5017148;28;20388;-68
2020/12/03 04:15:07;;;;;;;3.50;2.85;;;15.90;62.30;;;-143.79;100.00;62634.88;5017160;28;20484;-68
2020/12/03 04:17:36;;;;;;;4.75;2.55;;;15.80;62.20;;;-143.79;100.00;62634.88;5017346;28;20368;-68
2020/12/03 04:20:05;;;;;;;3.63;2.25;;;15.80;62.20;;;-143.79;100.00;62634.88;5017650;28;20096;-68
2020/12/03 04:22:31;;;;;;;3.20;2.40;;;15.80;62.20;;;-143.79;100.00;62634.88;5034795;28;20033;-68
2020/12/03 04:24:57;;;;;;;5.05;2.22;;;15.80;62.20;;;-143.79;100.00;62634.88;5034958;28;20036;-68
2020/12/03 04:27:23;;;;;;;4.65;2.88;;;15.80;62.30;;;-143.79;100.00;62634.88;5034703;28;20394;-68
2020/12/03 04:29:49;;;;;;;5.75;2.72;;;15.70;62.20;;;-143.79;100.00;62634.88;5016872;28;20312;-68
2020/12/03 04:32:15;;;;;;;4.53;2.63;;;15.60;62.20;;;-143.79;100.00;62634.88;5034634;28;20541;-68
2020/12/03 04:34:40;;;;;;;3.33;2.25;;;15.70;62.20;;;-143.79;100.00;62634.88;5016822;28;20119;-68
2020/12/03 04:37:06;;;;;;;4.22;2.92;;;15.70;62.30;;;-143.79;100.00;62634.88;5035438;28;20076;-69
2020/12/03 04:39:32;;;;;;;3.97;2.47;;;15.70;62.40;;;-143.79;100.00;62634.88;5034554;28;20033;-69
2020/12/03 04:41:59;;;;;;;4.55;2.60;;;15.70;62.40;;;-143.79;100.00;62634.88;5034398;28;20069;-68
2020/12/03 04:44:32;;;;;;;4.78;2.78;;;15.60;62.40;;;-143.79;100.00;62634.88;5000318;28;20116;-69
2020/12/03 04:47:22;;;;;;;2.70;2.30;;;15.60;62.40;;;-143.79;100.00;62634.88;5016667;28;20048;-69
2020/12/03 04:50:07;;;;;;;4.18;2.78;;;15.60;62.30;;;-143.79;100.00;62634.88;5034388;28;20042;-68
2020/12/03 04:53:00;;;;;;;5.55;2.80;;;15.60;62.30;;;-143.79;100.00;62634.88;5034341;28;20499;-68
2020/12/03 04:55:33;;;;;;;3.30;2.42;;;15.60;62.30;;;-143.79;100.00;62634.88;5034144;28;20044;-68
2020/12/03 04:58:16;;;;;;;3.05;2.33;;;15.60;62.40;;;-143.79;100.00;62634.88;5016331;28;20084;-68
2020/12/03 05:00:57;;;;;;;3.42;2.30;;;15.60;62.30;;;-143.79;100.00;62634.88;5016261;28;20030;-68
2020/12/03 05:03:41;;;;;;;4.00;2.67;;;15.60;62.30;;;-143.79;100.00;62634.88;5017168;28;20037;-68
2020/12/03 05:06:54;;;;;;;3.33;2.25;;;15.60;62.30;;;-143.79;100.00;62634.88;5033973;28;20033;-68
2020/12/03 05:09:25;;;;;;;4.22;2.20;;;15.60;62.30;;;-143.79;100.00;62634.88;5034464;28;20365;-69
2020/12/03 05:11:58;;;;;;;;;;;15.70;62.30;;;-143.79;100.00;62634.88;5016643;28;20033;-68
2020/12/03 05:14:49;;;;;;;2.78;2.08;;;15.70;62.40;;;-143.79;100.00;62634.88;5034062;28;20011;-68
2020/12/03 05:17:20;;;;;;;3.80;2.67;;;15.70;62.40;;;-143.79;100.00;62634.88;5016183;28;20305;-68
2020/12/03 05:20:13;;;;;;;3.17;2.20;;;15.70;62.20;;;-143.79;100.00;62634.88;5033090;28;20041;-68
2020/12/03 05:22:39;;;;;;;3.10;2.08;;;15.80;62.30;;;-143.79;100.00;62634.88;5016319;28;20387;-68
2020/12/03 05:25:14;;;;;;;3.97;2.05;;;15.80;62.10;;;-143.79;100.00;62634.88;5033560;28;20037;-68
2020/12/03 05:27:42;;;;;;;4.78;2.65;;;15.90;62.20;;;-143.79;100.00;62634.88;5033656;28;20033;-67
2020/12/03 05:30:08;;;;;;;2.58;2.10;;;15.90;62.10;;;-143.79;100.00;62634.88;4999537;28;20072;-68
2020/12/03 05:32:36;;;;;;;3.80;2.10;;;15.90;62.00;;;-143.79;100.00;62634.88;5033852;28;20081;-68
2020/12/03 05:35:08;;;;;;;3.83;2.45;;;16.00;62.00;;;-143.79;100.00;62634.88;5033421;28;20091;-68
2020/12/03 05:37:34;;;;;;;3.40;2.30;;;16.00;62.00;;;-143.79;100.00;62634.88;5017178;28;20053;-68
2020/12/03 05:40:01;;;;;;;3.00;2.15;;;16.00;62.10;;;-143.79;100.00;62634.88;5033277;28;20084;-68
2020/12/03 05:42:35;;;;;;;4.63;1.92;;;15.90;74.40;;;-143.79;100.00;62634.88;5033496;28;20056;-69
2020/12/03 05:45:18;;;;;;;3.80;2.42;;;16.00;61.90;;;-143.79;100.00;62634.88;5015463;28;20096;-67
2020/12/03 05:47:46;;;;;;;2.85;2.40;;;16.00;61.90;;;-143.79;100.00;62634.88;5033441;28;20037;-67
2020/12/03 05:50:16;;;;;;;2.88;2.58;;;16.00;62.00;;;-143.79;100.00;62634.88;5015414;28;20068;-67
2020/12/03 05:53:13;;;;;;;2.53;2.33;;;16.00;62.00;;;-143.79;100.00;62634.88;5033098;28;20045;-67
2020/12/03 05:55:39;;;;;;;2.70;2.30;;;16.00;62.00;;;-143.79;100.00;62634.88;5015632;28;20037;-68
2020/12/03 05:58:27;;;;;;;4.50;2.63;;;15.90;62.00;;;-143.79;100.00;62634.88;5015669;28;20039;-67
2020/12/03 06:01:24;;;;;;;2.72;2.20;;;16.00;62.00;;;-143.79;100.00;62634.88;5033039;28;20475;-67
2020/12/03 06:04:03;;;;;;;3.22;2.30;;;15.90;61.90;;;-143.79;100.00;62634.88;5032813;28;20099;-67
2020/12/03 06:07:16;;;;;;;3.40;2.10;;;15.90;62.00;;;-143.79;100.00;62634.88;5015647;28;20040;-67
2020/12/03 06:10:20;;;;;;;3.08;1.95;;;16.00;62.20;;;-143.79;100.00;62634.88;5032810;28;20041;-72
2020/12/03 06:13:11;;;;;;;2.30;2.03;;;16.10;62.10;;;-143.79;100.00;62634.88;5015179;28;20388;-67
2020/12/03 06:15:53;;;;;;;2.95;2.00;;;16.10;62.60;;;-143.79;100.00;62634.88;5015266;28;20029;-67
2020/12/03 06:18:58;;;;;;;4.13;1.88;;;16.30;61.60;;;-143.79;100.00;62634.88;5014897;28;20036;-68
2020/12/03 06:21:54;;;;;;;3.35;1.85;;;16.40;61.40;;;-143.79;100.00;62634.88;5032538;28;20053;-71
2020/12/03 06:24:53;;;;;;;2.35;1.80;;;16.60;61.10;;;-143.79;100.00;62634.88;5032363;28;20487;-68
2020/12/03 06:28:17;;;;;;;2.28;1.85;;;16.60;61.10;;;-143.79;100.00;62634.88;5013930;28;20044;-68
2020/12/03 06:31:16;;;;;;;3.50;2.10;;;16.70;61.10;;;-143.79;100.00;62634.88;5009303;28;20050;-68
2020/12/03 06:33:52;;;;;;;2.00;1.75;;;16.70;61.00;;;-143.79;100.00;62634.88;5031041;28;20372;-67
2020/12/03 06:36:39;;;;;;;2.95;2.17;;;16.80;61.00;;;-143.79;100.00;62634.88;5015398;28;20061;-68
2020/12/03 06:39:23;;;;;;;2.13;1.92;;;16.80;61.00;;;-143.79;100.00;62634.88;5032135;28;20038;-68
2020/12/03 06:41:58;;;;;;;3.35;2.28;;;16.80;60.90;;;-143.79;100.00;62634.88;5014756;28;20084;-67
2020/12/03 06:44:58;;;;;;;2.30;1.77;;;16.90;60.80;;;-143.79;100.00;62634.88;5015048;28;20034;-68
2020/12/03 06:48:05;;;;;;;3.50;1.90;;;16.90;60.80;;;-143.79;100.00;62634.88;4998530;28;20030;-68
2020/12/03 06:51:16;;;;;;;2.63;1.95;;;16.90;60.80;;;-143.79;100.00;62634.88;5013270;28;20029;-69
2020/12/03 06:54:22;;;;;;;1.70;1.60;;;16.90;60.70;;;-143.79;100.00;62634.88;5013389;28;20037;-68
2020/12/03 06:57:29;;;;;;;3.55;1.98;;;17.00;60.70;;;-143.79;100.00;62634.88;5014512;28;20033;-68
2020/12/03 07:00:26;;;;;;;2.70;1.85;;;17.00;60.80;;;-143.79;100.00;62634.88;5014716;28;20061;-67
2020/12/03 07:03:19;;;;;;;2.30;1.65;;;17.00;60.90;;;-143.79;100.00;62634.88;5014618;28;20030;-68
2020/12/03 07:06:38;;;;;;;1.90;1.60;;;16.90;60.70;;;-143.79;100.00;62634.88;5032303;28;20116;-69
2020/12/03 07:09:34;;;;;;;2.45;2.10;;;16.90;60.70;;;-143.79;100.00;62634.88;5032231;28;20037;-69
2020/12/03 07:12:46;;;;;;;5.35;2.30;;;16.90;60.90;;;-143.79;100.00;62634.88;5014818;28;20083;-69
2020/12/03 07:15:45;;;;;;;2.78;1.95;;;16.90;61.50;;;-143.79;100.00;62634.88;5007543;28;20041;-75
2020/12/03 07:18:54;;;;;;;2.67;1.85;;;16.90;60.80;;;-143.79;100.00;62634.88;5048634;28;20029;-70
2020/12/03 07:21:55;;;;;;;3.92;2.20;;;16.90;60.70;;;-143.79;100.00;62634.88;5031881;28;20033;-68
2020/12/03 07:24:30;;;;;;;6.40;2.45;;;17.00;61.30;;;-143.79;100.00;62634.88;5014309;28;20033;-71
2020/12/03 07:27:37;;;;;;;5.75;2.60;;;17.00;61.30;;;-143.79;100.00;62634.88;5014441;28;20033;-72
2020/12/03 07:30:54;;;;;;;4.63;2.83;;;17.00;61.00;;;-143.79;100.00;62634.88;5031857;28;20034;-72
2020/12/03 07:33:58;;;;;;;4.57;2.50;;;17.00;60.90;;;-143.79;100.00;62634.88;5031917;28;20030;-72
2020/12/03 07:36:57;;;;;;;3.08;1.98;;;17.00;60.80;;;-143.79;100.00;62634.88;5014736;28;20058;-72
2020/12/03 07:39:35;;;;;;;8.13;2.60;;;17.00;60.60;;;-143.79;100.00;62634.88;5014060;28;20068;-72
2020/12/03 07:42:17;;;;;;;4.80;2.30;;;17.00;60.50;;;-143.79;100.00;62634.88;5030838;28;20060;-72
2020/12/03 07:44:53;;;;;;;5.07;2.55;;;17.00;60.50;;;-143.79;100.00;62634.88;5035240;28;20554;-73
2020/12/03 07:47:38;;;;;;;5.32;2.22;;;17.10;60.60;;;-143.79;100.00;62634.88;5035633;28;20080;-70
2020/12/03 07:50:07;;;;;;;6.63;2.92;;;17.00;60.50;;;-143.79;100.00;62634.88;5034472;28;20124;-69
2020/12/03 07:52:36;;;;;;;4.75;2.25;;;17.00;60.70;;;-143.79;100.00;62634.88;5035506;28;20029;-68
2020/12/03 07:55:20;;;;;;;8.93;2.65;;;17.10;60.70;;;-143.79;100.00;62634.88;5016943;28;20060;-69
2020/12/03 07:57:56;;;;;;;8.00;3.20;;;17.10;60.50;;;-143.79;100.00;62634.88;5034609;28;20034;-69
2020/12/03 08:00:45;;;;;;;5.72;2.40;;;17.10;60.40;;;-143.79;100.00;62634.88;5035406;28;20068;-68
2020/12/03 08:03:36;;;;;;;3.00;2.13;;;17.10;60.40;;;-143.79;100.00;62634.88;5035055;28;20526;-68
2020/12/03 08:06:11;;;;;;;;;;;17.10;60.30;;;-143.79;100.00;62634.88;5035417;28;20041;-69
2020/12/03 08:08:47;;;;;;;4.50;2.13;;;17.10;60.30;;;-143.79;100.00;62634.88;5017438;28;19909;-68
2020/12/03 08:11:38;;;;;;;4.97;2.25;;;17.20;60.30;;;-143.79;100.00;62634.88;5033739;28;20088;-69
2020/12/03 08:14:34;;;;;;;5.00;2.03;;;17.20;60.30;;;-143.79;100.00;62634.88;5035100;28;20494;-70
2020/12/03 08:17:01;;;;;;;5.05;2.28;;;17.30;60.20;;;-143.79;100.00;62634.88;5034765;28;20123;-71
2020/12/03 08:19:35;;;;;;;2.70;1.85;;;17.30;60.10;;;-143.79;100.00;62634.88;5033590;28;20034;-70
2020/12/03 08:22:17;;;;;;;5.07;2.03;;;17.40;60.00;;;-143.79;100.00;62634.88;5035025;28;20391;-71
2020/12/03 08:24:44;;;;;;;6.28;1.98;;;17.40;59.90;;;-143.79;100.00;62634.88;5033234;28;20063;-71
2020/12/03 08:27:15;;;;;;;4.43;2.08;;;17.50;59.80;;;-143.79;100.00;62634.88;5034820;28;20427;-70
2020/12/03 08:29:41;;;;;;;5.18;2.00;;;17.60;59.70;;;-143.79;100.00;62634.88;5034749;28;20124;-71
2020/12/03 08:32:07;;;;;;;3.85;1.80;;;17.50;59.70;;;-143.79;100.00;62634.88;5034776;28;20064;-71
2020/12/03 08:34:41;;;;;;;7.10;2.17;;;17.50;59.90;;;-143.79;100.00;62634.88;5034536;28;20033;-71
2020/12/03 08:37:23;;;;;;;3.78;2.30;;;17.50;60.00;;;-143.79;100.00;62634.88;5017304;28;20158;-70
2020/12/03 08:39:52;;;;;;;4.07;2.05;;;17.50;60.30;;;-143.79;100.00;62634.88;5034679;28;20347;-70
2020/12/03 08:42:19;;;;;;;3.38;2.08;;;17.40;60.20;;;-143.79;100.00;62634.88;5036038;28;20033;-70
2020/12/03 08:44:47;;;;;;;4.05;2.10;;;17.40;60.30;;;-143.79;100.00;62634.88;5020405;28;20033;-71
2020/12/03 08:47:41;;;;;;;5.28;2.28;;;17.40;60.40;;;-143.79;100.00;62634.88;5054060;28;20044;-70
2020/12/03 08:50:14;;;;;;;4.53;1.90;;;17.30;60.50;;;-143.79;100.00;62634.88;5036518;28;20391;-70
2020/12/03 08:52:41;;;;;;;4.50;2.20;;;17.30;60.70;;;-143.79;100.00;62634.88;5054380;28;20057;-71
2020/12/03 08:55:12;;;;;;;4.50;2.13;;;17.20;60.80;;;-143.79;100.00;62634.88;5054038;28;20025;-70
2020/12/03 08:57:41;;;;;;;4.57;1.92;;;17.20;60.90;;;-143.79;100.00;62634.88;5053950;28;20033;-70
2020/12/03 09:00:14;;;;;;;5.47;2.58;;;17.10;60.90;;;-143.79;100.00;62634.88;5036323;28;20083;-71
2020/12/03 09:02:42;;;;;;;5.03;2.40;;;17.10;60.90;;;-143.79;100.00;62634.88;5054144;28;20060;-70
2020/12/03 09:05:08;;;;;;;3.33;1.88;;;17.10;61.00;;;-143.79;100.00;62634.88;5053783;28;20486;-70
2020/12/03 09:07:47;;;;;;;3.83;2.58;;;17.00;61.00;;;-143.79;100.00;62634.88;5036161;28;20033;-69
2020/12/03 09:10:15;;;;;;;2.55;2.33;;;17.00;61.00;;;-143.79;100.00;62634.88;5053807;28;20143;-70
2020/12/03 09:12:46;;;;;;;2.80;2.00;;;17.00;61.00;;;-143.79;100.00;62634.88;5035923;28;20029;-70
2020/12/03 09:15:12;;;;;;;5.03;2.80;;;16.90;61.00;;;-143.79;100.00;62634.88;5036101;28;20043;-70
2020/12/03 09:17:48;;;;;;;5.55;2.80;;;16.90;61.00;;;-143.79;100.00;62634.88;5053781;28;20115;-68
2020/12/03 09:21:02;;;;;;;5.65;2.15;;;17.00;72.40;;;;;;4780558;27;8893225;-68
2020/12/03 09:23:31;;;;;;;3.25;2.35;;;16.90;60.60;;;;;;5090180;28;20025;-69
2020/12/03 09:25:57;;;;;;;3.55;2.75;;;16.90;60.80;;;;;;5090114;28;20027;-69
2020/12/03 09:28:23;;;;;;;3.28;2.55;;;16.80;60.80;;;;;;5090162;28;20028;-69
2020/12/03 09:30:51;;;;;;;3.33;2.17;;;16.80;60.90;;;;;;5090140;28;20420;-69
2020/12/03 09:33:20;;;;;;;4.03;2.20;;;16.80;60.90;;;;;;5089875;28;20020;-68
2020/12/03 09:35:48;;;;;;;3.58;2.42;;;16.90;60.80;;;;;;5089976;28;20065;-69
2020/12/03 09:38:15;;;;;;;5.50;2.05;;;16.90;60.70;;;;;;5088457;28;20390;-68
2020/12/03 09:40:47;;;;;;;3.33;2.50;;;16.90;60.60;;;;;;5088309;28;20090;-69
2020/12/03 09:43:18;;;;;;;2.92;2.28;;;17.00;60.60;;;;;;5088397;28;20049;-69
2020/12/03 09:45:47;;;;;;;2.92;2.28;;;17.00;60.60;;;;;;5089524;28;20028;-69
2020/12/03 09:48:16;;;;;;;4.07;2.30;;;17.10;60.60;;;;;;5089614;28;20028;-69
2020/12/03 09:50:43;;;;;;;2.95;2.08;;;17.10;60.50;;;;;;5089800;28;20031;-69
2020/12/03 09:53:36;;;;;;;3.72;1.80;;;17.30;60.50;;;;;;5089687;28;20048;-66
2020/12/03 09:56:03;;;;;;;3.92;2.35;;;17.20;60.40;;;;;;5086657;28;20125;-69
2020/12/03 09:58:29;;;;;;;2.30;1.90;;;17.20;60.30;;;;;;5089403;28;20016;-68
2020/12/03 10:01:01;;;;;;;4.57;1.92;;;17.30;60.30;;;;;;5089650;28;20051;-69
2020/12/03 10:03:58;;;;;;;2.75;1.58;;;17.30;60.30;;;;;;5089650;28;20386;-69
2020/12/03 10:06:31;;;;;;;2.83;1.75;;;17.30;60.30;;;;;;5089551;28;20028;-68
2020/12/03 10:09:16;;;;;;;2.00;1.55;;;17.40;60.40;;;;;;5089461;28;20351;-69
2020/12/03 10:12:03;;;;;;;3.03;2.00;;;17.30;60.30;;;;;;5089200;28;20383;-68
2020/12/03 10:14:59;;;;;;;2.92;2.10;;;17.30;60.40;;;;;;5089358;28;20025;-69
2020/12/03 10:17:33;;;;;;;4.65;2.40;;;17.30;60.40;;;;;;5089050;28;20099;-69
2020/12/03 10:20:02;;;;;;;3.90;2.40;;;17.30;60.40;;;;;;5089914;27;20052;-69
2020/12/03 10:23:14;;;;;;;3.58;2.25;;;17.30;60.40;;;;;;5089122;28;20016;-69
2020/12/03 10:25:41;;;;;;;4.10;2.13;;;17.30;60.50;;;;;;5006518;28;20034;-69
2020/12/03 10:28:35;;;;;;;2.45;2.03;;;17.20;60.50;;;;;;5006706;28;20034;-68
2020/12/03 10:31:02;;;;;;;3.65;2.33;;;17.20;60.60;;;;;;5059561;28;20040;-69
2020/12/03 10:33:34;;;;;;;4.30;2.40;;;17.30;60.70;;;;;;5075416;28;20075;-69
2020/12/03 10:36:08;;;;;;;2.80;2.25;;;17.10;60.70;;;;;;5075117;28;20028;-69
2020/12/03 10:38:43;;;;;;;2.40;2.20;;;17.10;60.70;;;;;;5074958;28;20079;-69
2020/12/03 10:41:09;;;;;;;3.53;2.60;;;17.10;60.70;;;;;;5075368;28;20029;-69
2020/12/03 10:43:37;;;;;;;3.53;3.00;;;17.00;61.30;;;;;;5074889;28;20459;-69
2020/12/03 10:46:10;;;;;;;2.85;2.47;;;17.00;60.60;;;;;;5074972;28;20059;-69
2020/12/03 10:48:39;;;;;;;4.43;3.25;;;17.00;60.70;;;;;;5075164;28;20056;-69
2020/12/03 10:51:09;;;;;;;4.15;2.50;;;17.00;60.60;;;;;;5075128;28;20052;-69
2020/12/03 10:53:37;;;;;;;4.47;3.00;;;16.90;60.60;;;;;;5074832;28;20063;-69